createdAt,value
2018-12-12T00:02:21.237Z,12.30
2018-12-12T00:04:49.401Z,14.75
2018-12-12T00:07:18.355Z,14.33
2018-12-12T00:09:46.786Z,15.43
2018-12-12T00:12:15.154Z,13.15
2018-12-12T00:14:43.285Z,16.73
2018-12-12T00:17:11.522Z,15.60
2018-12-12T00:19:39.661Z,12.20
2018-12-12T00:22:07.852Z,13.98
2018-12-12T00:24:36.089Z,15.25
2018-12-12T00:27:04.312Z,15.75
2018-12-12T00:29:32.454Z,14.80
2018-12-12T00:32:00.694Z,14.03
2018-12-12T00:34:28.823Z,16.17
2018-12-12T00:36:56.973Z,16.42
2018-12-12T00:39:25.134Z,15.35
2018-12-12T00:41:53.737Z,16.40
2018-12-12T00:44:22.001Z,16.45
2018-12-12T00:46:50.533Z,17.05
2018-12-12T00:49:18.825Z,17.50
2018-12-12T00:51:49.166Z,17.15
2018-12-12T00:54:17.243Z,19.52
2018-12-12T00:56:45.438Z,20.57
2018-12-12T00:59:13.781Z,20.70
2018-12-12T01:01:41.990Z,20.85
2018-12-12T01:04:10.058Z,17.63
2018-12-12T01:06:38.232Z,19.60
2018-12-12T01:09:07.824Z,20.15
2018-12-12T01:11:41.422Z,18.35
2018-12-12T01:14:09.515Z,21.17
2018-12-12T01:16:37.676Z,19.85
2018-12-12T01:19:05.855Z,21.55
2018-12-12T01:21:34.014Z,20.30
2018-12-12T01:24:02.210Z,19.20
2018-12-12T01:26:30.567Z,18.48
2018-12-12T01:28:58.763Z,18.25
2018-12-12T01:31:26.909Z,18.62
2018-12-12T01:33:55.110Z,17.23
2018-12-12T01:36:23.261Z,21.80
2018-12-12T01:38:51.380Z,21.00
2018-12-12T01:41:19.525Z,17.73
2018-12-12T01:43:47.565Z,18.40
2018-12-12T01:46:15.760Z,18.80
2018-12-12T01:48:44.125Z,18.87
2018-12-12T01:51:12.305Z,19.23
2018-12-12T01:53:41.094Z,19.35
2018-12-12T01:56:09.737Z,20.25
2018-12-12T01:58:38.918Z,18.50
2018-12-12T02:01:07.581Z,20.60
2018-12-12T02:03:36.023Z,19.70
2018-12-12T02:06:04.431Z,20.08
2018-12-12T02:08:32.605Z,17.27
2018-12-12T02:11:00.917Z,18.77
2018-12-12T02:13:36.425Z,19.80
2018-12-12T02:16:07.470Z,20.60
2018-12-12T02:18:37.843Z,19.37
2018-12-12T02:21:05.972Z,20.55
2018-12-12T02:23:34.132Z,18.35
2018-12-12T02:26:02.329Z,19.80
2018-12-12T02:28:30.495Z,20.82
2018-12-12T02:30:58.547Z,21.12
2018-12-12T02:33:26.626Z,20.62
2018-12-12T02:35:55.379Z,21.45
2018-12-12T02:38:23.585Z,20.72
2018-12-12T02:40:51.733Z,18.15
2018-12-12T02:43:19.931Z,20.43
2018-12-12T02:45:48.032Z,17.50
2018-12-12T02:48:16.180Z,24.30
2018-12-12T02:50:44.356Z,20.88
2018-12-12T02:53:12.401Z,20.45
2018-12-12T02:55:40.596Z,21.93
2018-12-12T02:58:08.681Z,22.80
2018-12-12T03:00:36.740Z,21.48
2018-12-12T03:03:05.046Z,16.70
2018-12-12T03:05:33.254Z,19.95
2018-12-12T03:08:01.453Z,19.37
2018-12-12T03:10:29.606Z,19.42
2018-12-12T03:12:57.717Z,18.15
2018-12-12T03:15:26.070Z,20.52
2018-12-12T03:17:54.263Z,21.68
2018-12-12T03:20:22.427Z,21.20
2018-12-12T03:22:50.885Z,20.30
2018-12-12T03:25:19.108Z,18.63
2018-12-12T03:27:47.141Z,19.52
2018-12-12T03:30:15.323Z,20.93
2018-12-12T03:32:43.479Z,19.33
2018-12-12T03:35:11.578Z,21.30
2018-12-12T03:37:39.757Z,19.57
2018-12-12T03:40:08.270Z,19.77
2018-12-12T03:42:36.635Z,17.92
2018-12-12T03:45:05.375Z,19.50
2018-12-12T03:47:33.566Z,22.40
2018-12-12T03:50:01.757Z,22.20
2018-12-12T03:52:29.777Z,21.77
2018-12-12T03:54:57.886Z,18.90
2018-12-12T03:57:25.924Z,20.23
2018-12-12T03:59:54.139Z,20.23
2018-12-12T04:02:22.287Z,20.20
2018-12-12T04:04:50.415Z,22.02
2018-12-12T04:07:18.847Z,23.40
2018-12-12T04:09:46.882Z,22.50
2018-12-12T04:12:14.988Z,23.00
2018-12-12T04:14:43.039Z,24.07
2018-12-12T04:17:12.212Z,24.40
2018-12-12T04:19:40.515Z,20.32
2018-12-12T04:22:08.817Z,24.98
2018-12-12T04:24:37.339Z,20.92
2018-12-12T04:27:05.465Z,25.90
2018-12-12T04:29:33.626Z,23.47
2018-12-12T04:32:01.746Z,24.10
2018-12-12T04:34:29.853Z,24.13
2018-12-12T04:36:58.483Z,26.25
2018-12-12T04:39:26.626Z,24.85
2018-12-12T04:41:54.834Z,29.25
2018-12-12T04:44:22.973Z,27.50
2018-12-12T04:46:51.167Z,28.27
2018-12-12T04:49:19.430Z,26.68
2018-12-12T04:51:48.844Z,30.62
2018-12-12T04:54:17.006Z,29.67
2018-12-12T04:56:45.149Z,31.12
2018-12-12T04:59:13.505Z,32.70
2018-12-12T05:01:41.822Z,33.30
2018-12-12T05:04:10.003Z,33.08
2018-12-12T05:06:38.056Z,33.10
2018-12-12T05:09:07.098Z,38.08
2018-12-12T05:11:36.870Z,33.40
2018-12-12T05:14:05.149Z,33.50
2018-12-12T05:16:33.309Z,39.15
2018-12-12T05:19:01.419Z,33.87
2018-12-12T05:21:29.544Z,34.95
2018-12-12T05:23:58.264Z,36.63
2018-12-12T05:26:26.512Z,45.60
2018-12-12T05:28:54.720Z,43.28
2018-12-12T05:31:22.787Z,39.35
2018-12-12T05:33:50.855Z,48.42
2018-12-12T05:36:18.922Z,50.37
2018-12-12T05:38:47.181Z,46.15
2018-12-12T05:41:15.365Z,45.43
2018-12-12T05:43:43.543Z,43.33
2018-12-12T05:46:11.620Z,48.10
2018-12-12T05:48:39.763Z,42.80
2018-12-12T05:51:07.866Z,42.43
2018-12-12T05:53:36.274Z,40.75
2018-12-12T05:56:04.328Z,39.98
2018-12-12T05:58:32.351Z,41.90
2018-12-12T06:01:00.548Z,42.78
2018-12-12T06:03:28.906Z,41.30
2018-12-12T06:05:57.106Z,38.00
2018-12-12T06:08:25.148Z,39.58
2018-12-12T06:10:53.346Z,42.70
2018-12-12T06:13:21.499Z,42.08
2018-12-12T06:15:49.708Z,41.25
2018-12-12T06:18:17.854Z,38.45
2018-12-12T06:20:46.138Z,35.70
2018-12-12T06:23:14.190Z,40.55
2018-12-12T06:25:42.370Z,37.85
2018-12-12T06:28:10.429Z,43.95
2018-12-12T06:30:38.624Z,41.98
2018-12-12T06:33:06.834Z,37.90
2018-12-12T06:35:35.591Z,42.50
2018-12-12T06:38:03.987Z,39.93
2018-12-12T06:40:32.113Z,40.80
2018-12-12T06:43:00.263Z,40.67
2018-12-12T06:45:28.578Z,38.70
2018-12-12T06:47:58.044Z,38.70
2018-12-12T06:50:26.453Z,39.60
2018-12-12T06:52:54.573Z,35.85
2018-12-12T06:55:22.803Z,35.05
2018-12-12T06:57:51.106Z,39.70
2018-12-12T07:00:19.346Z,38.50
2018-12-12T07:02:47.571Z,39.65
2018-12-12T07:05:15.589Z,40.45
2018-12-12T07:07:44.055Z,37.03
2018-12-12T07:10:12.389Z,39.30
2018-12-12T07:12:40.445Z,40.33
2018-12-12T07:15:08.705Z,37.70
2018-12-12T07:17:36.903Z,39.80
2018-12-12T07:20:05.146Z,36.33
2018-12-12T07:22:33.338Z,39.00
2018-12-12T07:25:01.519Z,44.73
2018-12-12T07:27:29.570Z,39.88
2018-12-12T07:29:57.645Z,41.00
2018-12-12T07:32:26.353Z,38.10
2018-12-12T07:34:54.725Z,39.58
2018-12-12T07:37:23.594Z,39.53
2018-12-12T07:39:51.882Z,40.73
2018-12-12T07:42:20.034Z,41.23
2018-12-12T07:44:48.225Z,37.20
2018-12-12T07:47:16.430Z,37.10
2018-12-12T07:49:44.493Z,38.20
2018-12-12T07:52:13.074Z,37.23
2018-12-12T07:54:41.446Z,39.70
2018-12-12T07:57:10.435Z,40.70
2018-12-12T07:59:38.490Z,38.08
2018-12-12T08:02:06.774Z,38.78
2018-12-12T08:04:34.978Z,43.58
2018-12-12T08:07:03.236Z,43.05
2018-12-12T08:09:31.361Z,42.90
2018-12-12T08:11:59.489Z,38.58
2018-12-12T08:14:27.627Z,34.35
2018-12-12T08:16:55.928Z,36.88
2018-12-12T08:19:24.198Z,36.60
2018-12-12T08:21:52.397Z,36.50
2018-12-12T08:24:20.539Z,41.70
2018-12-12T08:26:48.835Z,38.73
2018-12-12T08:29:17.085Z,36.90
2018-12-12T08:31:45.362Z,35.80
2018-12-12T08:34:13.509Z,41.73
2018-12-12T08:36:41.801Z,33.95
2018-12-12T08:39:09.885Z,38.15
2018-12-12T08:41:37.987Z,37.55
2018-12-12T08:44:06.229Z,37.83
2018-12-12T08:46:34.428Z,33.73
2018-12-12T08:49:02.598Z,37.30
2018-12-12T08:51:30.955Z,37.65
2018-12-12T08:53:59.321Z,35.70
2018-12-12T08:56:27.509Z,34.13
2018-12-12T08:58:56.619Z,36.28
2018-12-12T09:01:25.446Z,38.55
2018-12-12T09:03:53.551Z,38.15
2018-12-12T09:06:21.637Z,38.13
2018-12-12T09:10:23.902Z,36.73
2018-12-12T09:12:51.992Z,39.03
2018-12-12T09:15:20.148Z,33.80
2018-12-12T09:17:48.347Z,34.80
2018-12-12T09:20:16.391Z,34.90
2018-12-12T09:22:44.602Z,35.52
2018-12-12T09:25:12.643Z,33.28
2018-12-12T09:27:40.859Z,36.47
2018-12-12T09:30:09.269Z,34.78
2018-12-12T09:32:37.578Z,35.38
2018-12-12T09:35:06.344Z,33.08
2018-12-12T09:38:27.274Z,36.42
2018-12-12T09:40:55.352Z,35.75
2018-12-12T09:43:23.700Z,35.50
2018-12-12T09:45:52.138Z,37.13
2018-12-12T09:48:21.273Z,35.85
2018-12-12T09:50:49.594Z,34.53
2018-12-12T09:53:18.084Z,35.73
2018-12-12T09:55:46.324Z,33.58
2018-12-12T09:58:14.523Z,34.20
2018-12-12T10:00:42.660Z,38.78
2018-12-12T10:03:10.887Z,35.88
2018-12-12T10:05:39.202Z,35.80
2018-12-12T10:08:07.500Z,32.15
2018-12-12T10:10:35.567Z,32.95
2018-12-12T10:13:04.654Z,32.03
2018-12-12T10:15:32.934Z,33.65
2018-12-12T10:18:01.143Z,33.88
2018-12-12T10:20:29.162Z,34.60
2018-12-12T10:22:57.260Z,35.53
2018-12-12T10:25:25.302Z,35.35
2018-12-12T10:27:53.610Z,31.87
2018-12-12T10:30:21.646Z,33.98
2018-12-12T10:32:49.853Z,31.37
2018-12-12T10:35:18.105Z,32.90
2018-12-12T10:37:46.193Z,31.57
2018-12-12T10:40:14.370Z,33.85
2018-12-12T10:42:42.542Z,33.67
2018-12-12T10:45:10.742Z,39.08
2018-12-12T10:47:38.876Z,37.08
2018-12-12T10:50:08.911Z,31.93
2018-12-12T10:52:37.155Z,33.17
2018-12-12T10:55:05.861Z,32.13
2018-12-12T10:57:34.134Z,34.67
2018-12-12T11:00:02.194Z,34.60
2018-12-12T11:02:31.764Z,32.80
2018-12-12T11:05:00.094Z,32.33
2018-12-12T11:07:28.448Z,34.13
2018-12-12T11:09:56.540Z,34.30
2018-12-12T11:12:24.611Z,35.40
2018-12-12T11:14:52.656Z,33.63
2018-12-12T11:17:20.873Z,34.30
2018-12-12T11:19:48.909Z,36.55
2018-12-12T11:22:17.092Z,33.98
2018-12-12T11:24:45.359Z,33.78
2018-12-12T11:27:13.653Z,37.28
2018-12-12T11:29:41.716Z,33.98
2018-12-12T11:32:09.819Z,33.25
2018-12-12T11:34:37.848Z,35.83
2018-12-12T11:37:06.058Z,33.37
2018-12-12T11:39:34.093Z,35.33
2018-12-12T11:42:02.194Z,34.88
2018-12-12T11:44:30.321Z,33.67
2018-12-12T11:46:58.418Z,34.40
2018-12-12T11:49:26.505Z,31.85
2018-12-12T11:51:54.624Z,34.67
2018-12-12T11:54:22.871Z,33.60
2018-12-12T11:56:50.913Z,36.70
2018-12-12T11:59:19.064Z,34.08
2018-12-12T12:01:47.450Z,33.90
2018-12-12T12:04:15.663Z,35.08
2018-12-12T12:06:43.686Z,35.17
2018-12-12T12:09:11.877Z,34.25
2018-12-12T12:11:39.941Z,31.93
2018-12-12T12:14:08.030Z,36.65
2018-12-12T12:16:36.302Z,30.50
2018-12-12T12:19:04.502Z,33.80
2018-12-12T12:21:32.755Z,33.00
2018-12-12T12:24:00.982Z,32.48
2018-12-12T12:26:29.341Z,36.13
2018-12-12T12:28:57.822Z,34.58
2018-12-12T12:31:25.990Z,32.50
2018-12-12T12:33:54.390Z,37.67
2018-12-12T12:36:22.671Z,32.63
2018-12-12T12:38:50.781Z,33.05
2018-12-12T12:41:19.034Z,33.25
2018-12-12T12:43:47.146Z,31.95
2018-12-12T12:46:15.183Z,36.60
2018-12-12T12:48:44.162Z,32.60
2018-12-12T12:51:12.457Z,37.17
2018-12-12T12:53:40.941Z,36.35
2018-12-12T12:56:09.226Z,39.08
2018-12-12T12:58:37.386Z,41.42
2018-12-12T13:01:05.506Z,36.85
2018-12-12T13:03:33.518Z,38.70
2018-12-12T13:06:01.966Z,37.83
2018-12-12T13:08:30.171Z,34.67
2018-12-12T13:10:58.471Z,36.20
2018-12-12T13:13:26.913Z,40.40
2018-12-12T13:15:55.676Z,39.95
2018-12-12T13:18:23.814Z,43.83
2018-12-12T13:20:51.906Z,40.70
2018-12-12T13:23:20.060Z,41.00
2018-12-12T13:25:48.211Z,39.53
2018-12-12T13:28:16.270Z,38.90
2018-12-12T13:30:44.467Z,39.20
2018-12-12T13:33:12.722Z,36.42
2018-12-12T13:35:41.129Z,36.23
2018-12-12T13:38:10.412Z,34.40
2018-12-12T13:40:39.307Z,36.68
2018-12-12T13:43:07.484Z,32.65
2018-12-12T13:45:35.638Z,33.95
2018-12-12T13:48:03.818Z,35.52
2018-12-12T13:50:32.082Z,31.85
2018-12-12T13:53:00.175Z,34.40
2018-12-12T13:55:28.337Z,34.23
2018-12-12T13:57:56.428Z,33.13
2018-12-12T14:00:24.472Z,33.80
2018-12-12T14:02:52.581Z,34.70
2018-12-12T14:05:20.726Z,34.90
2018-12-12T14:07:48.910Z,36.17
2018-12-12T14:10:17.289Z,34.95
2018-12-12T14:12:45.962Z,36.03
2018-12-12T14:15:14.780Z,35.25
2018-12-12T14:17:42.855Z,33.53
2018-12-12T14:20:11.079Z,34.90
2018-12-12T14:22:39.295Z,34.75
2018-12-12T14:25:07.454Z,35.63
2018-12-12T14:27:38.885Z,32.17
2018-12-12T14:30:06.452Z,34.23
2018-12-12T14:32:34.493Z,34.37
2018-12-12T14:35:02.601Z,30.12
2018-12-12T14:37:30.651Z,26.55
2018-12-12T14:39:58.870Z,28.40
2018-12-12T14:42:27.026Z,26.45
2018-12-12T14:44:55.203Z,15.88
2018-12-12T14:47:23.363Z,10.90
2018-12-12T14:49:51.553Z,11.10
2018-12-12T14:52:19.589Z,8.87
2018-12-12T14:54:47.678Z,8.75
2018-12-12T14:57:15.726Z,8.35
2018-12-12T14:59:44.051Z,7.05
2018-12-12T15:02:12.166Z,6.67
2018-12-12T15:04:40.266Z,6.47
2018-12-12T15:07:08.310Z,6.53
2018-12-12T15:09:36.530Z,7.25
2018-12-12T15:12:04.674Z,7.35
2018-12-12T15:14:32.769Z,7.43
2018-12-12T15:17:00.934Z,7.62
2018-12-12T15:19:29.090Z,8.33
2018-12-12T15:21:57.203Z,8.60
2018-12-12T15:24:25.430Z,10.00
2018-12-12T15:26:53.841Z,9.13
2018-12-12T15:29:22.192Z,8.80
2018-12-12T15:31:50.503Z,8.93
2018-12-12T15:34:18.618Z,10.13
2018-12-12T15:36:46.754Z,10.00
2018-12-12T15:39:15.488Z,9.58
2018-12-12T15:41:43.597Z,10.38
2018-12-12T15:44:11.847Z,8.70
2018-12-12T15:46:39.958Z,11.28
2018-12-12T15:49:07.992Z,10.00
2018-12-12T15:51:36.708Z,10.50
2018-12-12T15:54:04.850Z,11.38
2018-12-12T15:56:33.054Z,11.63
2018-12-12T15:59:01.087Z,12.85
2018-12-12T16:01:29.275Z,13.90
2018-12-12T16:03:57.478Z,15.90
2018-12-12T16:06:25.642Z,14.90
2018-12-12T16:08:53.825Z,15.00
2018-12-12T16:11:22.103Z,15.80
2018-12-12T16:13:50.150Z,17.73
2018-12-12T16:16:18.312Z,15.72
2018-12-12T16:18:46.419Z,12.05
2018-12-12T16:21:14.578Z,14.35
2018-12-12T16:23:42.771Z,11.55
2018-12-12T16:26:10.911Z,11.48
2018-12-12T16:28:39.348Z,11.93
2018-12-12T16:31:07.858Z,14.70
2018-12-12T16:33:42.845Z,14.40
2018-12-12T16:36:11.179Z,14.05
2018-12-12T16:38:39.368Z,35.75
2018-12-12T16:41:07.821Z,34.38
2018-12-12T16:43:36.229Z,14.15
2018-12-12T16:46:04.502Z,14.90
2018-12-12T16:48:32.772Z,15.95
2018-12-12T16:51:00.917Z,17.52
2018-12-12T16:53:29.139Z,17.57
2018-12-12T16:55:57.490Z,15.90
2018-12-12T16:58:25.950Z,19.65
2018-12-12T17:00:54.145Z,16.50
2018-12-12T17:03:22.389Z,18.20
2018-12-12T17:05:50.606Z,17.60
2018-12-12T17:08:18.943Z,20.35
2018-12-12T17:10:47.145Z,14.38
2018-12-12T17:13:15.190Z,14.23
2018-12-12T17:15:43.493Z,14.90
2018-12-12T17:18:11.537Z,16.77
2018-12-12T17:20:40.268Z,17.42
2018-12-12T17:23:08.395Z,16.07
2018-12-12T17:25:36.486Z,18.25
2018-12-12T17:28:04.538Z,17.82
2018-12-12T17:30:32.713Z,17.57
2018-12-12T17:33:00.983Z,20.62
2018-12-12T17:35:29.918Z,17.42
2018-12-12T17:37:58.070Z,17.12
2018-12-12T17:40:26.161Z,19.30
2018-12-12T17:42:54.302Z,16.90
2018-12-12T17:45:22.370Z,15.40
2018-12-12T17:47:50.584Z,16.75
2018-12-12T17:50:18.738Z,16.73
2018-12-12T17:52:46.906Z,15.00
2018-12-12T17:55:15.081Z,16.48
2018-12-12T17:57:43.369Z,16.27
2018-12-12T18:00:11.796Z,17.02
2018-12-12T18:02:39.943Z,16.85
2018-12-12T18:05:08.055Z,18.40
2018-12-12T18:07:36.154Z,17.77
2018-12-12T18:10:04.600Z,19.45
2018-12-12T18:12:32.815Z,19.02
2018-12-12T18:15:00.967Z,20.72
2018-12-12T18:17:29.155Z,17.62
2018-12-12T18:19:57.298Z,18.00
2018-12-12T18:22:25.449Z,21.00
2018-12-12T18:24:53.652Z,22.67
2018-12-12T18:27:21.969Z,24.67
2018-12-12T18:29:50.136Z,23.55
2018-12-12T18:32:18.934Z,22.35
2018-12-12T18:34:47.085Z,22.90
2018-12-12T18:37:15.448Z,23.57
2018-12-12T18:39:43.658Z,22.80
2018-12-12T18:42:12.495Z,22.25
2018-12-12T18:44:41.116Z,23.60
2018-12-12T18:47:09.483Z,24.05
2018-12-12T18:49:38.416Z,23.73
2018-12-12T18:52:07.247Z,22.80
2018-12-12T18:54:35.434Z,24.65
2018-12-12T18:57:03.507Z,23.90
2018-12-12T18:59:32.315Z,27.85
2018-12-12T19:02:00.408Z,41.10
2018-12-12T19:04:28.466Z,40.05
2018-12-12T19:06:56.909Z,37.58
2018-12-12T19:09:25.208Z,35.78
2018-12-12T19:11:53.358Z,34.85
2018-12-12T19:14:21.848Z,31.75
2018-12-12T19:16:49.890Z,29.40
2018-12-12T19:19:18.097Z,22.98
2018-12-12T19:21:50.523Z,25.88
2018-12-12T19:24:18.634Z,26.50
2018-12-12T19:26:46.920Z,23.27
2018-12-12T19:29:14.971Z,22.40
2018-12-12T19:31:44.109Z,21.20
2018-12-12T19:34:12.241Z,21.30
2018-12-12T19:36:40.361Z,22.20
2018-12-12T19:39:10.130Z,22.45
2018-12-12T19:41:39.090Z,20.90
2018-12-12T19:44:07.193Z,21.12
2018-12-12T19:46:35.387Z,22.82
2018-12-12T19:49:04.451Z,23.05
2018-12-12T19:51:32.646Z,24.67
2018-12-12T19:54:02.114Z,26.87
2018-12-12T19:56:30.226Z,24.50
2018-12-12T19:59:02.960Z,27.82
2018-12-12T20:01:32.819Z,60.08
2018-12-12T20:04:03.438Z,23.85
2018-12-12T20:06:31.806Z,21.82
2018-12-12T20:09:00.938Z,22.52
2018-12-12T20:11:30.214Z,22.87
2018-12-12T20:13:59.483Z,25.30
2018-12-12T20:16:28.143Z,25.23
2018-12-12T20:18:57.690Z,26.87
2018-12-12T20:21:27.108Z,27.50
2018-12-12T20:23:55.278Z,24.72
2018-12-12T20:26:23.930Z,23.40
2018-12-12T20:28:52.060Z,20.95
2018-12-12T20:31:21.611Z,22.00
2018-12-12T20:33:50.647Z,22.65
2018-12-12T20:36:19.383Z,22.10
2018-12-12T20:38:49.188Z,20.35
2018-12-12T20:41:18.938Z,22.90
2018-12-12T20:43:49.344Z,20.85
2018-12-12T20:46:18.132Z,19.23
2018-12-12T20:48:47.156Z,20.95
2018-12-12T20:51:15.711Z,18.20
2018-12-12T20:53:43.802Z,26.37
2018-12-12T20:56:12.370Z,20.00
2018-12-12T20:58:41.085Z,22.25
2018-12-12T21:01:10.294Z,20.32
2018-12-12T21:03:38.727Z,20.35
2018-12-12T21:06:07.745Z,18.92
2018-12-12T21:08:35.798Z,20.75
2018-12-12T21:11:04.345Z,22.87
2018-12-12T21:13:32.443Z,21.75
2018-12-12T21:16:01.339Z,22.17
2018-12-12T21:18:29.926Z,25.45
2018-12-12T21:20:58.001Z,20.35
2018-12-12T21:23:26.220Z,18.43
2018-12-12T21:25:56.249Z,17.50
2018-12-12T21:28:24.456Z,16.20
2018-12-12T21:30:52.554Z,16.07
2018-12-12T21:33:20.711Z,13.40
2018-12-12T21:35:48.924Z,12.80
2018-12-12T21:38:17.151Z,13.58
2018-12-12T21:40:45.379Z,12.37
2018-12-12T21:43:14.215Z,12.07
2018-12-12T21:45:46.827Z,11.65
2018-12-12T21:48:14.966Z,11.10
2018-12-12T21:50:43.394Z,11.50
2018-12-12T21:53:11.443Z,11.48
2018-12-12T21:55:39.656Z,12.15
2018-12-12T21:58:07.989Z,11.80
2018-12-12T22:00:37.124Z,13.28
2018-12-12T22:03:05.463Z,11.45
2018-12-12T22:05:33.929Z,12.18
2018-12-12T22:08:02.702Z,10.93
2018-12-12T22:10:31.092Z,10.95
2018-12-12T22:12:59.273Z,12.18
2018-12-12T22:15:27.424Z,12.70
2018-12-12T22:17:55.753Z,11.30
2018-12-12T22:20:24.119Z,12.70
2018-12-12T22:22:52.286Z,11.50
2018-12-12T22:25:20.302Z,11.70
2018-12-12T22:27:48.434Z,11.88
2018-12-12T22:30:16.480Z,14.87
2018-12-12T22:32:44.766Z,13.48
2018-12-12T22:35:13.136Z,12.60
2018-12-12T22:37:41.922Z,11.97
2018-12-12T22:40:10.178Z,12.03
2018-12-12T22:42:38.299Z,12.53
2018-12-12T22:45:06.419Z,12.80
2018-12-12T22:47:34.591Z,12.60
2018-12-12T22:50:02.708Z,13.32
2018-12-12T22:52:31.042Z,13.10
2018-12-12T22:54:59.353Z,12.70
2018-12-12T22:57:27.699Z,13.00
2018-12-12T22:59:55.912Z,13.60
2018-12-12T23:02:23.938Z,13.30
2018-12-12T23:04:52.370Z,13.83
2018-12-12T23:07:20.388Z,14.23
2018-12-12T23:09:48.511Z,13.25
2018-12-12T23:12:16.527Z,14.18
2018-12-12T23:14:44.846Z,15.65
2018-12-12T23:17:13.933Z,14.60
2018-12-12T23:19:41.995Z,14.50
2018-12-12T23:22:10.158Z,15.55
2018-12-12T23:24:38.353Z,14.70
2018-12-12T23:27:06.424Z,14.45
2018-12-12T23:29:34.603Z,15.25
2018-12-12T23:32:03.157Z,13.70
2018-12-12T23:34:31.246Z,14.05
2018-12-12T23:37:00.190Z,15.15
2018-12-12T23:39:28.286Z,15.30
2018-12-12T23:41:56.458Z,14.50
2018-12-12T23:44:24.845Z,15.95
2018-12-12T23:46:53.049Z,15.93
2018-12-12T23:49:21.094Z,15.10
2018-12-12T23:51:49.917Z,16.75
2018-12-12T23:54:18.049Z,16.37
2018-12-12T23:56:46.133Z,16.40
2018-12-12T23:59:14.395Z,16.70
